Time;durP1;ratioP1;P1;durP2;ratioP2;P2;SDS_P1;SDS_P2;PMS_P1;PMS_P2;Temp;Humidity;BMP_temperature;BMP_pressure;BME280_temperature;BME280_humidity;BME280_pressure;Samples;Min_cycle;Max_cycle;Signal;HPM_P1;HPM_P2
2023/03/07 00:00:44;;;;;;;27.92;14.57;;;3.30;99.90;;;;;;5045939;28;20059;-73
2023/03/07 00:03:15;;;;;;;25.33;14.52;;;3.30;99.90;;;;;;5043476;28;20041;-73
2023/03/07 00:05:41;;;;;;;24.65;13.55;;;3.30;99.90;;;;;;5042295;28;20413;-70
2023/03/07 00:08:07;;;;;;;24.75;12.82;;;3.40;99.90;;;;;;5034655;28;20423;-72
2023/03/07 00:10:33;;;;;;;20.63;11.80;;;3.30;99.90;;;;;;5022920;28;20056;-70
2023/03/07 00:12:59;;;;;;;21.27;12.20;;;3.40;99.90;;;;;;5048002;28;20506;-71
2023/03/07 00:15:25;;;;;;;20.00;10.25;;;3.40;99.90;;;;;;5033716;28;20143;-73
2023/03/07 00:17:51;;;;;;;17.52;10.52;;;3.40;99.90;;;;;;5027707;28;20049;-73
2023/03/07 00:20:17;;;;;;;19.55;9.57;;;3.30;99.90;;;;;;5048177;28;20052;-72
2023/03/07 00:22:45;;;;;;;15.80;9.02;;;3.30;99.90;;;;;;5050104;28;20037;-70
2023/03/07 00:25:13;;;;;;;13.95;8.40;;;3.30;99.90;;;;;;5041153;28;20050;-71
2023/03/07 00:27:39;;;;;;;13.40;8.13;;;3.30;99.90;;;;;;5041404;28;20044;-70
2023/03/07 00:30:06;;;;;;;13.23;6.90;;;3.30;99.90;;;;;;5042210;28;20084;-71
2023/03/07 00:32:32;;;;;;;22.23;5.70;;;3.30;99.90;;;;;;5045263;28;20048;-73
2023/03/07 00:34:59;;;;;;;14.25;4.78;;;3.30;99.90;;;;;;5030565;28;20059;-73
2023/03/07 00:37:25;;;;;;;13.07;4.07;;;3.20;99.90;;;;;;5046844;28;20060;-71
2023/03/07 00:39:51;;;;;;;15.32;3.80;;;3.20;99.90;;;;;;5033902;28;20045;-72
2023/03/07 00:42:17;;;;;;;11.27;3.25;;;3.20;99.90;;;;;;5048490;28;20089;-71
2023/03/07 00:44:42;;;;;;;8.82;3.75;;;3.20;99.90;;;;;;5014455;28;20076;-70
2023/03/07 00:47:08;;;;;;;11.18;3.95;;;3.20;99.90;;;;;;5027624;28;20045;-73
2023/03/07 00:49:34;;;;;;;11.05;3.70;;;3.30;99.90;;;;;;5049992;28;20048;-70
2023/03/07 00:52:00;;;;;;;9.00;3.08;;;3.30;99.90;;;;;;5049091;28;20164;-72
2023/03/07 00:54:26;;;;;;;13.60;3.88;;;3.30;99.90;;;;;;5049652;28;20062;-73
2023/03/07 00:56:52;;;;;;;10.20;3.33;;;3.30;99.90;;;;;;5054473;28;20051;-70
2023/03/07 00:59:18;;;;;;;16.05;3.00;;;3.30;99.90;;;;;;5051533;28;20411;-71
2023/03/07 01:01:44;;;;;;;10.20;2.58;;;3.30;99.90;;;;;;5032638;28;20048;-72
2023/03/07 01:04:09;;;;;;;14.60;3.40;;;3.30;99.90;;;;;;5036450;28;20045;-70
2023/03/07 01:06:35;;;;;;;14.93;2.47;;;3.30;99.90;;;;;;5035994;28;20047;-72
2023/03/07 01:09:06;;;;;;;14.80;2.70;;;3.40;99.90;;;;;;5047009;28;20130;-72
2023/03/07 01:11:33;;;;;;;15.23;3.05;;;3.40;99.90;;;;;;5059860;28;20047;-73
2023/03/07 01:14:01;;;;;;;14.85;2.65;;;3.40;99.90;;;;;;5048814;28;20040;-72
2023/03/07 01:16:29;;;;;;;12.82;2.15;;;3.40;99.90;;;;;;5050158;28;20041;-70
2023/03/07 01:19:22;;;;;;;13.23;2.10;;;3.40;99.90;;;;;;5020886;28;20052;-73
2023/03/07 01:21:48;;;;;;;;;;;3.40;99.90;;;;;;5011529;28;20096;-70
2023/03/07 01:24:14;;;;;;;21.65;2.80;;;3.40;99.90;;;;;;5022556;28;19931;-70
2023/03/07 01:26:40;;;;;;;12.52;2.58;;;3.40;99.90;;;;;;5006474;28;20771;-72
2023/03/07 01:29:07;;;;;;;17.27;2.00;;;3.40;99.90;;;;;;5006247;28;20047;-73
2023/03/07 01:31:33;;;;;;;13.23;2.55;;;3.40;99.90;;;;;;5023940;28;20056;-73
2023/03/07 01:34:00;;;;;;;19.95;2.08;;;3.40;99.90;;;;;;5027907;28;20391;-72
2023/03/07 01:36:32;;;;;;;16.02;2.60;;;3.40;99.90;;;;;;5021456;28;20049;-75
2023/03/07 01:39:03;;;;;;;15.18;2.58;;;3.50;99.90;;;;;;5025679;28;20044;-72
2023/03/07 01:41:31;;;;;;;12.95;1.95;;;3.40;99.90;;;;;;5004038;28;20044;-71
2023/03/07 01:43:58;;;;;;;12.07;1.80;;;3.50;99.90;;;;;;5009464;28;20079;-73
2023/03/07 01:46:32;;;;;;;12.10;2.20;;;3.40;99.90;;;;;;5028306;28;20048;-73
2023/03/07 01:49:23;;;;;;;12.65;2.13;;;3.40;99.90;;;;;;5020846;28;20052;-72
2023/03/07 01:52:04;;;;;;;14.15;2.30;;;3.40;99.90;;;;;;5019079;28;20515;-73
2023/03/07 01:54:31;;;;;;;14.55;1.88;;;3.30;99.90;;;;;;5008945;28;20142;-71
2023/03/07 01:56:57;;;;;;;10.50;1.60;;;3.30;99.90;;;;;;5006128;28;20479;-73
2023/03/07 01:59:29;;;;;;;10.85;1.90;;;3.30;99.90;;;;;;5008657;28;20053;-71
2023/03/07 02:01:59;;;;;;;12.55;2.42;;;3.20;99.90;;;;;;5018797;28;20055;-72
2023/03/07 02:04:35;;;;;;;12.05;2.40;;;3.20;99.90;;;;;;5017995;28;20241;-73
2023/03/07 02:07:02;;;;;;;10.07;2.13;;;3.20;99.90;;;;;;5022368;28;20104;-70
2023/03/07 02:09:31;;;;;;;10.32;1.85;;;3.10;99.90;;;;;;5012359;28;20084;-71
2023/03/07 02:11:59;;;;;;;13.95;1.95;;;3.20;99.90;;;;;;5025355;28;20117;-73
2023/03/07 02:14:25;;;;;;;14.07;1.95;;;3.10;99.90;;;;;;5021988;28;20114;-71
2023/03/07 02:16:52;;;;;;;10.68;2.20;;;3.10;99.90;;;;;;4985727;28;20048;-73
2023/03/07 02:19:46;;;;;;;14.43;2.00;;;3.10;99.90;;;;;;5012180;28;20052;-71
2023/03/07 02:22:17;;;;;;;13.93;2.55;;;3.10;99.90;;;;;;5049739;28;20060;-73
2023/03/07 02:25:13;;;;;;;14.30;1.73;;;3.00;99.90;;;;;;5037417;28;20742;-72
2023/03/07 02:27:40;;;;;;;16.88;2.15;;;3.00;99.90;;;;;;5044707;28;20146;-73
2023/03/07 02:30:07;;;;;;;12.25;2.22;;;3.00;99.90;;;;;;5044686;28;20248;-72
2023/03/07 02:32:33;;;;;;;13.13;2.25;;;3.10;99.90;;;;;;5047475;28;20058;-74
2023/03/07 02:34:59;;;;;;;8.68;2.55;;;3.10;99.90;;;;;;5042721;28;20048;-73
2023/03/07 02:37:35;;;;;;;10.75;2.10;;;3.00;99.90;;;;;;5042683;28;20048;-73
2023/03/07 02:40:08;;;;;;;9.45;1.98;;;3.00;99.90;;;;;;5047269;28;20039;-71
2023/03/07 02:42:37;;;;;;;8.55;1.50;;;3.00;99.90;;;;;;5050649;28;20505;-73
2023/03/07 02:45:08;;;;;;;15.77;2.15;;;2.90;99.90;;;;;;5037434;28;20671;-71
2023/03/07 02:47:34;;;;;;;17.38;1.98;;;2.90;99.90;;;;;;5050489;28;20307;-73
2023/03/07 02:50:00;;;;;;;13.63;2.15;;;2.90;99.90;;;;;;5048106;28;20047;-71
2023/03/07 02:52:27;;;;;;;12.20;1.60;;;2.90;99.90;;;;;;5013972;28;20175;-71
2023/03/07 02:54:53;;;;;;;13.00;1.85;;;2.90;99.90;;;;;;5030593;28;20052;-73
2023/03/07 02:57:19;;;;;;;8.93;2.58;;;2.80;99.90;;;;;;5048548;28;20239;-71
2023/03/07 02:59:45;;;;;;;12.32;2.55;;;2.80;99.90;;;;;;5025390;28;20048;-71
2023/03/07 03:02:11;;;;;;;11.43;1.70;;;2.80;99.90;;;;;;5031128;28;20381;-70
2023/03/07 03:04:37;;;;;;;14.13;1.88;;;2.80;99.90;;;;;;5029375;28;20122;-73
2023/03/07 03:07:03;;;;;;;12.15;1.70;;;2.80;99.90;;;;;;5049299;28;20047;-72
2023/03/07 03:09:28;;;;;;;11.05;2.28;;;2.80;99.90;;;;;;5016939;28;20074;-74
2023/03/07 03:11:54;;;;;;;14.80;2.13;;;2.80;99.90;;;;;;5044596;28;20044;-73
2023/03/07 03:14:20;;;;;;;9.70;1.80;;;2.80;99.90;;;;;;5009099;28;20166;-72
2023/03/07 03:16:46;;;;;;;11.55;1.98;;;2.80;99.90;;;;;;5029037;28;20078;-72
2023/03/07 03:19:12;;;;;;;9.75;1.38;;;2.80;99.90;;;;;;5045300;28;20048;-72
2023/03/07 03:21:37;;;;;;;13.52;1.75;;;2.80;99.90;;;;;;5013509;28;20044;-72
2023/03/07 03:24:08;;;;;;;9.88;1.67;;;2.80;99.90;;;;;;5044390;28;20049;-71
2023/03/07 03:26:34;;;;;;;10.48;1.65;;;2.80;99.90;;;;;;5043720;28;20574;-72
2023/03/07 03:29:02;;;;;;;14.13;1.75;;;2.70;99.90;;;;;;5034760;28;20092;-72
2023/03/07 03:31:29;;;;;;;9.93;1.50;;;2.70;99.90;;;;;;5049421;28;20051;-71
2023/03/07 03:33:57;;;;;;;16.90;2.13;;;2.70;99.90;;;;;;5048142;28;20044;-72
2023/03/07 03:36:27;;;;;;;13.20;1.98;;;2.70;99.90;;;;;;5026686;28;20074;-72
2023/03/07 03:38:54;;;;;;;12.90;1.70;;;2.70;99.90;;;;;;5030117;28;21937;-71
2023/03/07 03:41:20;;;;;;;8.00;1.50;;;2.70;99.90;;;;;;5049588;28;20967;-72
2023/03/07 03:43:47;;;;;;;11.45;1.73;;;2.70;99.90;;;;;;5048029;28;20044;-72
2023/03/07 03:46:13;;;;;;;11.00;1.85;;;2.60;99.90;;;;;;5058047;28;20919;-71
2023/03/07 03:48:39;;;;;;;10.45;1.52;;;2.60;99.90;;;;;;5029601;28;20036;-73
2023/03/07 03:51:10;;;;;;;11.70;2.42;;;2.60;99.90;;;;;;5048556;28;20059;-71
2023/03/07 03:53:38;;;;;;;13.15;2.00;;;2.60;99.90;;;;;;5040024;28;20082;-73
2023/03/07 03:56:10;;;;;;;10.93;1.63;;;2.60;99.90;;;;;;5040809;28;20042;-72
2023/03/07 03:58:37;;;;;;;5.43;1.75;;;2.50;99.90;;;;;;5027776;28;20063;-72
2023/03/07 04:01:08;;;;;;;12.07;1.88;;;2.50;99.90;;;;;;5047994;28;20205;-72
2023/03/07 04:03:36;;;;;;;6.25;1.40;;;2.50;99.90;;;;;;5021306;28;21008;-71
2023/03/07 04:06:05;;;;;;;6.95;1.58;;;2.50;99.90;;;;;;5037801;28;20082;-72
2023/03/07 04:08:32;;;;;;;11.48;1.92;;;2.50;99.90;;;;;;5046433;28;20741;-73
2023/03/07 04:10:58;;;;;;;7.72;1.67;;;2.50;99.90;;;;;;5029456;28;20109;-71
2023/03/07 04:13:24;;;;;;;14.23;1.73;;;2.50;99.90;;;;;;5030987;28;20055;-72
2023/03/07 04:15:51;;;;;;;12.70;1.70;;;2.50;99.90;;;;;;5033585;28;20046;-72
2023/03/07 04:18:17;;;;;;;9.02;1.83;;;2.50;99.90;;;;;;5047307;28;20048;-72
2023/03/07 04:20:44;;;;;;;7.13;2.13;;;2.50;99.90;;;;;;5065610;28;20471;-71
2023/03/07 04:23:10;;;;;;;10.57;2.05;;;2.50;99.90;;;;;;5051706;28;20044;-70
2023/03/07 04:25:36;;;;;;;8.38;1.80;;;2.50;99.90;;;;;;5050192;28;20046;-71
2023/03/07 04:28:02;;;;;;;10.50;2.17;;;2.50;99.90;;;;;;5051921;28;20044;-71
2023/03/07 04:30:28;;;;;;;14.77;3.17;;;2.50;99.90;;;;;;5052757;28;20059;-72
2023/03/07 04:32:54;;;;;;;10.65;2.03;;;2.40;99.90;;;;;;5070376;28;20074;-70
2023/03/07 04:35:20;;;;;;;10.65;1.70;;;2.40;99.90;;;;;;5054205;28;20410;-72
2023/03/07 04:37:46;;;;;;;10.75;1.50;;;2.40;99.90;;;;;;5055049;28;20055;-71
2023/03/07 04:40:12;;;;;;;19.00;2.17;;;2.40;99.90;;;;;;5055684;28;20044;-72
2023/03/07 04:42:38;;;;;;;9.30;1.63;;;2.40;99.90;;;;;;5034997;28;20055;-71
2023/03/07 04:45:04;;;;;;;9.57;1.88;;;2.40;99.90;;;;;;5045925;28;21821;-70
2023/03/07 04:47:30;;;;;;;13.65;1.90;;;2.40;99.90;;;;;;5027837;28;20075;-72
2023/03/07 04:49:55;;;;;;;7.05;2.08;;;2.40;99.90;;;;;;5051867;28;20062;-70
2023/03/07 04:52:21;;;;;;;15.10;2.65;;;2.40;99.90;;;;;;5050063;28;20404;-71
2023/03/07 04:54:47;;;;;;;15.18;1.83;;;2.40;99.90;;;;;;5052631;28;20071;-71
2023/03/07 04:57:13;;;;;;;11.23;1.70;;;2.40;99.90;;;;;;5052407;28;20048;-72
2023/03/07 04:59:39;;;;;;;12.38;1.80;;;2.40;99.90;;;;;;5054509;28;20118;-72
2023/03/07 05:02:06;;;;;;;17.13;1.95;;;2.40;99.90;;;;;;5033336;28;20044;-71
2023/03/07 05:04:32;;;;;;;14.98;1.83;;;2.40;99.90;;;;;;5040270;28;20115;-71
2023/03/07 05:06:58;;;;;;;13.68;1.95;;;2.50;99.90;;;;;;5051870;28;20394;-72
2023/03/07 05:09:24;;;;;;;10.02;1.85;;;2.50;99.90;;;;;;5024680;28;20078;-73
2023/03/07 05:11:50;;;;;;;13.73;2.03;;;2.60;99.90;;;;;;5051862;28;20051;-72
2023/03/07 05:14:15;;;;;;;12.20;1.70;;;2.60;99.90;;;;;;5053696;28;20101;-71
2023/03/07 05:16:41;;;;;;;11.48;1.80;;;2.80;99.90;;;;;;5039796;28;20048;-71
2023/03/07 05:19:07;;;;;;;9.23;2.00;;;2.70;99.90;;;;;;5032801;28;20058;-73
2023/03/07 05:21:33;;;;;;;10.55;1.70;;;2.60;99.90;;;;;;5034395;28;20048;-71
2023/03/07 05:23:59;;;;;;;8.95;1.55;;;2.70;99.90;;;;;;5059802;28;20042;-71
2023/03/07 05:26:25;;;;;;;7.82;1.73;;;2.70;99.90;;;;;;5027990;28;20082;-72
2023/03/07 05:28:51;;;;;;;10.82;1.52;;;2.70;99.90;;;;;;5028776;28;20501;-72
2023/03/07 05:31:17;;;;;;;9.55;2.08;;;2.70;99.90;;;;;;5059027;28;20051;-73
2023/03/07 05:33:43;;;;;;;8.65;1.70;;;2.80;99.90;;;;;;5059405;28;20051;-71
2023/03/07 05:36:08;;;;;;;11.65;1.60;;;2.70;99.90;;;;;;5077903;28;20605;-73
2023/03/07 05:38:35;;;;;;;8.70;2.13;;;2.70;99.90;;;;;;5013387;28;20783;-70
2023/03/07 05:41:00;;;;;;;7.32;1.35;;;2.70;99.90;;;;;;5049737;28;20048;-72
2023/03/07 05:43:26;;;;;;;7.78;1.35;;;2.70;99.90;;;;;;5049909;28;20072;-72
2023/03/07 05:45:52;;;;;;;11.80;1.65;;;2.70;99.90;;;;;;5026049;28;20597;-71
2023/03/07 05:48:18;;;;;;;13.65;1.70;;;2.60;99.90;;;;;;5027914;28;20132;-71
2023/03/07 05:50:44;;;;;;;7.85;1.42;;;2.60;99.90;;;;;;5046776;28;20052;-71
2023/03/07 05:53:10;;;;;;;7.82;1.70;;;2.60;99.90;;;;;;5015800;28;20151;-71
2023/03/07 05:55:35;;;;;;;12.68;1.65;;;2.50;99.90;;;;;;5039993;28;20171;-71
2023/03/07 05:58:01;;;;;;;11.15;1.67;;;2.50;99.90;;;;;;5010845;28;20043;-71
2023/03/07 06:00:27;;;;;;;9.35;1.80;;;2.50;99.90;;;;;;5044960;28;20044;-72
2023/03/07 06:02:53;;;;;;;9.18;1.33;;;2.50;99.90;;;;;;5041905;28;20051;-72
2023/03/07 06:05:19;;;;;;;8.45;1.33;;;2.50;99.90;;;;;;5058776;28;20044;-71
2023/03/07 06:07:45;;;;;;;6.90;1.42;;;2.60;99.90;;;;;;5047779;28;20415;-72
2023/03/07 06:10:11;;;;;;;9.90;1.15;;;2.60;99.90;;;;;;5043182;28;20064;-72
2023/03/07 06:12:37;;;;;;;9.38;1.60;;;2.50;99.90;;;;;;5029953;28;20478;-72
2023/03/07 06:15:04;;;;;;;9.07;1.20;;;2.50;99.90;;;;;;5047814;28;20048;-72
2023/03/07 06:17:30;;;;;;;5.35;1.30;;;2.50;99.90;;;;;;5033145;28;20047;-70
2023/03/07 06:19:55;;;;;;;10.80;1.40;;;2.50;99.90;;;;;;5044326;28;20932;-71
2023/03/07 06:22:21;;;;;;;9.93;1.60;;;2.50;99.90;;;;;;5058118;28;20415;-73
2023/03/07 06:24:47;;;;;;;6.15;1.60;;;2.50;99.90;;;;;;5019718;28;20048;-72
2023/03/07 06:27:13;;;;;;;9.80;1.50;;;2.50;99.90;;;;;;5049240;28;20347;-72
2023/03/07 06:29:39;;;;;;;8.55;1.23;;;2.50;99.90;;;;;;5046078;28;20047;-72
2023/03/07 06:32:05;;;;;;;7.90;1.75;;;2.50;99.90;;;;;;5029962;28;20052;-71
2023/03/07 06:34:31;;;;;;;9.02;1.23;;;2.80;99.90;;;;;;5044184;28;20605;-71
2023/03/07 06:36:56;;;;;;;7.05;1.33;;;2.50;99.90;;;;;;5038354;28;20052;-72
2023/03/07 06:39:22;;;;;;;12.18;1.25;;;2.40;99.90;;;;;;5045037;28;20054;-72
2023/03/07 06:41:49;;;;;;;10.43;2.63;;;2.40;99.90;;;;;;5047320;28;20044;-73
2023/03/07 06:44:16;;;;;;;6.88;1.67;;;2.40;99.90;;;;;;5034128;28;20756;-72
2023/03/07 06:46:43;;;;;;;9.95;1.88;;;2.40;99.90;;;;;;5021436;28;20050;-71
2023/03/07 06:49:09;;;;;;;9.98;1.50;;;2.40;99.90;;;;;;5038552;28;20058;-72
2023/03/07 06:51:35;;;;;;;7.18;1.30;;;2.50;99.90;;;;;;5045843;28;20982;-71
2023/03/07 06:54:00;;;;;;;5.30;1.23;;;2.50;99.90;;;;;;5052944;28;20924;-72
2023/03/07 06:56:28;;;;;;;12.00;1.63;;;2.50;99.90;;;;;;5059999;28;20040;-71
2023/03/07 06:58:54;;;;;;;16.55;1.60;;;2.50;99.90;;;;;;5042128;28;20088;-71
2023/03/07 07:01:21;;;;;;;5.05;1.20;;;2.50;99.90;;;;;;5066043;28;20114;-72
2023/03/07 07:03:47;;;;;;;5.07;1.30;;;2.50;99.90;;;;;;5042283;28;20051;-72
2023/03/07 07:06:13;;;;;;;7.22;1.48;;;2.50;99.90;;;;;;5058203;28;20039;-72
2023/03/07 07:08:39;;;;;;;7.07;1.10;;;2.50;99.90;;;;;;5055421;28;20120;-64
2023/03/07 07:11:05;;;;;;;7.75;1.30;;;2.50;99.90;;;;;;5058277;28;20055;-64
2023/03/07 07:13:31;;;;;;;11.65;1.60;;;2.50;99.90;;;;;;5059775;28;20048;-64
2023/03/07 07:16:06;;;;;;;7.00;1.20;;;2.50;99.90;;;;;;5060600;28;21009;-65
2023/03/07 07:18:32;;;;;;;8.23;1.17;;;2.60;99.90;;;;;;5045412;28;20036;-64
2023/03/07 07:20:58;;;;;;;6.70;1.20;;;2.60;99.90;;;;;;5025521;28;21048;-64
2023/03/07 07:23:25;;;;;;;9.15;2.00;;;2.60;99.90;;;;;;5072709;28;20044;-64
2023/03/07 07:25:52;;;;;;;4.95;1.40;;;2.60;99.90;;;;;;5068478;28;20054;-64
2023/03/07 07:28:17;;;;;;;3.38;0.90;;;2.60;99.90;;;;;;5067530;28;20576;-64
2023/03/07 07:30:43;;;;;;;3.28;1.13;;;2.60;99.90;;;;;;5044825;28;20115;-64
2023/03/07 07:33:09;;;;;;;4.50;0.90;;;2.60;99.90;;;;;;5073188;28;20044;-64
2023/03/07 07:35:35;;;;;;;2.70;0.93;;;2.60;99.90;;;;;;5068037;28;20376;-64
2023/03/07 07:38:02;;;;;;;9.02;1.33;;;2.60;99.90;;;;;;5047382;28;20106;-64
2023/03/07 07:40:28;;;;;;;8.63;1.05;;;2.60;99.90;;;;;;5067458;28;20473;-63
2023/03/07 07:42:53;;;;;;;6.13;0.88;;;2.60;99.90;;;;;;5067854;28;20043;-65
2023/03/07 07:45:21;;;;;;;3.85;0.90;;;2.70;99.90;;;;;;5069247;28;20101;-64
2023/03/07 07:47:48;;;;;;;4.38;1.15;;;2.70;99.90;;;;;;5071863;28;20039;-64
2023/03/07 07:50:19;;;;;;;9.07;1.10;;;2.70;99.90;;;;;;5055456;28;20312;-64
2023/03/07 07:52:45;;;;;;;5.63;1.00;;;2.60;99.90;;;;;;5067304;28;20044;-65
2023/03/07 07:55:13;;;;;;;9.38;0.98;;;2.70;99.90;;;;;;5045985;28;20090;-65
2023/03/07 07:57:39;;;;;;;7.30;1.00;;;2.70;99.90;;;;;;5069329;28;20051;-65
2023/03/07 08:00:07;;;;;;;3.92;1.13;;;2.70;99.90;;;;;;5045484;28;20052;-64
2023/03/07 08:02:34;;;;;;;7.00;1.02;;;2.70;99.90;;;;;;5072289;28;20043;-64
2023/03/07 08:05:00;;;;;;;3.90;1.20;;;2.70;99.90;;;;;;5069920;28;20051;-64
2023/03/07 08:07:26;;;;;;;5.53;1.42;;;2.80;99.90;;;;;;5061534;28;20032;-64
2023/03/07 08:09:52;;;;;;;11.35;1.70;;;2.80;99.90;;;;;;5073379;28;20055;-64
2023/03/07 08:12:18;;;;;;;9.20;1.23;;;2.90;99.90;;;;;;5057878;28;20044;-64
2023/03/07 08:14:44;;;;;;;7.80;1.60;;;2.90;99.90;;;;;;5052167;28;20044;-65
2023/03/07 08:17:09;;;;;;;6.18;1.50;;;3.00;99.90;;;;;;5059906;28;20048;-64
2023/03/07 08:19:35;;;;;;;6.35;1.23;;;3.00;99.90;;;;;;5053378;28;20094;-64
2023/03/07 08:22:02;;;;;;;9.68;1.30;;;3.00;99.90;;;;;;5070242;28;20052;-64
2023/03/07 08:24:27;;;;;;;7.45;1.45;;;3.10;99.90;;;;;;5057064;28;20040;-64
2023/03/07 08:26:53;;;;;;;9.88;1.20;;;3.10;99.90;;;;;;5054016;28;20051;-65
2023/03/07 08:29:19;;;;;;;7.10;1.73;;;3.10;99.90;;;;;;5074916;28;20078;-64
2023/03/07 08:31:47;;;;;;;6.60;1.50;;;3.10;99.90;;;;;;5075224;28;20039;-64
2023/03/07 08:34:13;;;;;;;7.63;1.60;;;3.20;99.90;;;;;;5039844;28;20044;-64
2023/03/07 08:36:39;;;;;;;12.15;1.45;;;3.10;99.90;;;;;;5072764;28;20032;-65
2023/03/07 08:39:04;;;;;;;7.38;1.65;;;3.00;99.90;;;;;;5078319;28;20055;-65
2023/03/07 08:41:30;;;;;;;8.50;1.67;;;3.00;99.90;;;;;;5042160;28;20044;-64
2023/03/07 08:43:56;;;;;;;9.63;1.60;;;2.90;99.90;;;;;;5028369;28;20133;-64
2023/03/07 08:46:22;;;;;;;7.82;1.67;;;2.90;99.90;;;;;;5077183;28;20119;-64
2023/03/07 08:48:48;;;;;;;10.63;1.30;;;2.90;99.90;;;;;;5054653;28;20040;-64
2023/03/07 08:51:16;;;;;;;13.60;1.88;;;3.00;99.90;;;;;;5053932;28;20118;-65
2023/03/07 08:53:43;;;;;;;7.60;1.38;;;3.00;99.90;;;;;;5073409;28;20048;-64
2023/03/07 08:56:14;;;;;;;11.05;1.48;;;3.00;99.90;;;;;;5071487;28;20047;-64
2023/03/07 08:58:41;;;;;;;8.73;1.60;;;3.10;99.90;;;;;;5076447;28;20048;-64
2023/03/07 09:01:07;;;;;;;9.85;1.42;;;3.20;99.90;;;;;;5056180;28;20143;-64
2023/03/07 09:03:34;;;;;;;8.60;1.30;;;3.20;99.90;;;;;;5075957;28;20118;-64
2023/03/07 09:06:01;;;;;;;8.38;1.45;;;3.20;99.90;;;;;;5063479;28;20042;-64
2023/03/07 09:08:26;;;;;;;7.38;1.45;;;3.30;99.90;;;;;;5077668;28;20115;-64
2023/03/07 09:10:52;;;;;;;7.68;1.60;;;3.30;99.90;;;;;;5067205;28;21156;-64
2023/03/07 09:13:18;;;;;;;9.18;1.25;;;3.20;99.90;;;;;;5057903;28;20070;-64
2023/03/07 09:15:44;;;;;;;8.27;1.30;;;3.20;99.90;;;;;;5075501;28;20108;-65
2023/03/07 09:18:11;;;;;;;5.93;1.27;;;3.20;99.90;;;;;;5050685;28;20046;-64
2023/03/07 09:20:37;;;;;;;4.40;1.40;;;3.20;99.90;;;;;;5072182;28;20080;-65
2023/03/07 09:23:04;;;;;;;11.20;1.52;;;3.20;99.90;;;;;;5073882;28;20044;-64
2023/03/07 09:25:30;;;;;;;8.60;1.48;;;3.20;99.90;;;;;;5068839;28;20107;-64
2023/03/07 09:27:55;;;;;;;7.72;1.40;;;3.20;99.90;;;;;;5062604;28;20510;-64
2023/03/07 09:30:22;;;;;;;13.20;2.13;;;3.30;99.90;;;;;;5054672;28;20083;-64
2023/03/07 09:32:49;;;;;;;5.90;1.40;;;3.40;99.90;;;;;;5066087;28;20051;-65
2023/03/07 09:35:14;;;;;;;5.63;1.17;;;3.30;99.90;;;;;;5071875;28;20131;-64
2023/03/07 09:37:40;;;;;;;7.18;1.40;;;3.30;99.90;;;;;;5066567;28;20151;-64
2023/03/07 09:40:10;;;;;;;4.68;1.23;;;3.40;99.90;;;;;;5055295;28;20051;-64
2023/03/07 09:42:54;;;;;;;6.80;1.15;;;3.40;99.90;;;;;;5070114;28;20040;-64
2023/03/07 09:45:41;;;;;;;5.15;1.38;;;3.40;99.90;;;;;;5073750;28;20043;-64
2023/03/07 09:48:27;;;;;;;6.63;1.58;;;3.40;99.90;;;;;;5088354;28;20039;-64
2023/03/07 09:51:18;;;;;;;7.97;1.98;;;3.40;99.90;;;;;;5050466;28;20124;-64
2023/03/07 09:54:00;;;;;;;8.13;1.58;;;3.40;99.90;;;;;;5070421;28;20048;-64
2023/03/07 09:56:31;;;;;;;9.60;1.10;;;3.40;99.90;;;;;;5069776;28;20156;-65
2023/03/07 09:59:14;;;;;;;12.30;1.38;;;3.30;99.90;;;;;;5054172;28;20127;-64
2023/03/07 10:01:43;;;;;;;6.68;1.55;;;3.40;99.90;;;;;;5068987;28;20051;-65
2023/03/07 10:04:18;;;;;;;8.10;1.42;;;3.40;99.90;;;;;;5051793;28;20150;-64
2023/03/07 10:06:53;;;;;;;8.30;1.35;;;3.40;99.90;;;;;;5068344;28;20700;-64
2023/03/07 10:09:21;;;;;;;5.68;1.27;;;3.50;99.90;;;;;;5071968;28;20040;-64
2023/03/07 10:12:12;;;;;;;9.45;1.50;;;3.50;99.90;;;;;;5062289;28;20100;-64
2023/03/07 10:14:49;;;;;;;7.32;1.55;;;3.70;99.90;;;;;;5053784;28;20036;-64
2023/03/07 10:17:39;;;;;;;11.20;1.83;;;3.70;99.90;;;;;;5069310;28;20554;-64
2023/03/07 10:20:17;;;;;;;3.53;1.40;;;3.80;99.90;;;;;;5054629;28;20055;-65
2023/03/07 10:23:18;;;;;;;9.32;1.40;;;3.90;99.90;;;;;;5061462;28;20118;-65
2023/03/07 10:25:55;;;;;;;8.00;1.50;;;4.00;99.90;;;;;;5062994;28;20071;-64
2023/03/07 10:28:31;;;;;;;11.23;1.60;;;4.10;99.90;;;;;;5045915;28;20115;-64
2023/03/07 10:31:09;;;;;;;9.25;1.52;;;4.20;99.90;;;;;;5070049;28;20083;-64
2023/03/07 10:33:38;;;;;;;7.53;1.50;;;4.30;99.90;;;;;;5065193;28;20044;-64
2023/03/07 10:36:38;;;;;;;7.22;1.75;;;4.30;99.90;;;;;;5061496;28;20064;-64
2023/03/07 10:39:10;;;;;;;5.60;1.40;;;4.20;99.90;;;;;;5066440;28;20082;-64
2023/03/07 10:41:36;;;;;;;9.03;1.73;;;4.30;99.90;;;;;;5070871;28;20040;-64
2023/03/07 10:44:01;;;;;;;6.25;1.30;;;4.20;99.90;;;;;;5063718;28;20334;-64
2023/03/07 10:46:29;;;;;;;8.02;1.67;;;4.30;99.90;;;;;;5034173;28;20174;-65
2023/03/07 10:49:07;;;;;;;10.88;1.58;;;4.30;99.90;;;;;;5067753;28;20047;-64
2023/03/07 10:52:04;;;;;;;15.25;1.98;;;4.50;99.90;;;;;;5063448;28;20056;-64
2023/03/07 10:54:34;;;;;;;6.05;1.58;;;4.70;99.90;;;;;;5063241;28;20067;-64
2023/03/07 10:57:26;;;;;;;6.38;1.40;;;4.80;99.90;;;;;;5054802;28;20053;-64
2023/03/07 10:59:52;;;;;;;12.77;1.73;;;5.00;99.90;;;;;;5050531;28;20549;-64
2023/03/07 11:02:21;;;;;;;7.15;1.50;;;5.10;99.90;;;;;;5065445;28;20059;-64
2023/03/07 11:04:47;;;;;;;12.50;1.52;;;5.20;99.90;;;;;;5065789;28;20045;-64
2023/03/07 11:07:31;;;;;;;11.40;2.67;;;5.30;99.90;;;;;;5068229;28;20050;-65
2023/03/07 11:09:58;;;;;;;8.27;1.80;;;5.30;99.90;;;;;;5063557;28;20056;-64
2023/03/07 11:12:28;;;;;;;10.90;2.13;;;5.30;99.90;;;;;;5066802;28;20048;-64
2023/03/07 11:15:07;;;;;;;10.48;1.67;;;5.40;99.90;;;;;;5067281;28;20473;-65
2023/03/07 11:17:40;;;;;;;7.82;1.75;;;5.40;99.90;;;;;;5062626;28;20040;-65
2023/03/07 11:20:27;;;;;;;12.93;1.90;;;5.60;99.90;;;;;;5020203;28;20049;-65
2023/03/07 11:23:22;;;;;;;8.43;1.50;;;5.80;99.90;;;;;;5065742;28;20063;-64
2023/03/07 11:25:49;;;;;;;7.32;1.45;;;5.70;99.90;;;;;;5057295;28;20036;-65
2023/03/07 11:28:34;;;;;;;5.13;1.33;;;5.50;99.90;;;;;;5033806;28;20050;-65
2023/03/07 11:31:31;;;;;;;16.67;1.70;;;4.90;99.90;;;;;;5066729;28;20502;-65
2023/03/07 11:34:25;;;;;;;5.65;1.23;;;4.60;99.90;;;;;;5047707;28;20060;-65
2023/03/07 11:36:57;;;;;;;9.95;1.30;;;4.40;99.90;;;;;;5042518;28;20406;-65
2023/03/07 11:39:55;;;;;;;10.10;1.40;;;4.30;99.90;;;;;;5069449;28;20044;-65
2023/03/07 11:42:25;;;;;;;10.05;1.58;;;4.30;99.90;;;;;;5042181;28;20070;-68
2023/03/07 11:44:52;;;;;;;8.90;1.77;;;4.30;99.90;;;;;;5058959;28;20044;-68
2023/03/07 11:47:44;;;;;;;6.38;1.30;;;4.30;99.90;;;;;;5061634;28;20083;-68
2023/03/07 11:50:18;;;;;;;8.55;1.70;;;4.20;99.90;;;;;;5063250;28;20079;-68
2023/03/07 11:53:05;;;;;;;9.90;1.80;;;4.20;99.90;;;;;;5063683;28;20070;-68
2023/03/07 11:55:56;;;;;;;8.63;1.90;;;4.30;99.90;;;;;;5040603;28;20123;-68
2023/03/07 11:58:31;;;;;;;7.95;2.00;;;4.60;99.90;;;;;;5043577;28;20131;-68
2023/03/07 12:01:15;;;;;;;9.82;1.88;;;4.80;99.90;;;;;;5057553;28;20051;-68
2023/03/07 12:04:10;;;;;;;8.57;1.65;;;5.00;99.90;;;;;;5055267;28;20058;-69
2023/03/07 12:06:48;;;;;;;7.10;1.60;;;5.30;99.90;;;;;;5034102;28;21284;-68
2023/03/07 12:09:28;;;;;;;9.32;1.80;;;5.70;99.90;;;;;;5058530;28;20044;-69
2023/03/07 12:12:26;;;;;;;8.07;1.75;;;6.10;99.90;;;;;;5041291;28;20045;-69
2023/03/07 12:15:21;;;;;;;7.82;1.60;;;6.30;99.90;;;;;;5047832;28;20135;-68
2023/03/07 12:18:10;;;;;;;5.78;1.02;;;6.30;99.90;;;;;;5050594;28;20036;-68
2023/03/07 12:20:44;;;;;;;7.60;1.50;;;6.40;99.90;;;;;;5037025;28;20825;-69
2023/03/07 12:23:32;;;;;;;9.57;1.40;;;6.40;99.90;;;;;;5052146;28;20063;-69
2023/03/07 12:26:04;;;;;;;11.63;1.30;;;6.50;99.90;;;;;;5038888;28;20044;-68
2023/03/07 12:29:06;;;;;;;6.97;1.45;;;6.60;99.90;;;;;;5062516;28;20044;-69
2023/03/07 12:31:55;;;;;;;6.60;1.33;;;6.60;99.90;;;;;;5036114;28;20040;-68
2023/03/07 12:34:46;;;;;;;8.10;1.33;;;6.50;99.90;;;;;;5042890;28;20087;-68
2023/03/07 12:37:15;;;;;;;4.68;1.42;;;6.50;99.90;;;;;;5030872;28;22544;-69
2023/03/07 12:40:22;;;;;;;5.25;1.13;;;6.60;99.90;;;;;;5046450;28;20167;-68
2023/03/07 12:43:16;;;;;;;5.88;1.00;;;6.80;99.90;;;;;;5021880;28;20047;-69
2023/03/07 12:45:51;;;;;;;5.78;1.20;;;7.00;99.90;;;;;;5059631;28;20048;-69
2023/03/07 12:48:40;;;;;;;2.20;0.77;;;7.30;99.90;;;;;;5054324;28;20040;-69
2023/03/07 12:51:25;;;;;;;6.35;1.00;;;7.70;99.90;;;;;;5040946;28;20552;-69
2023/03/07 12:54:16;;;;;;;4.72;0.90;;;8.00;99.90;;;;;;5057544;28;20048;-69
2023/03/07 12:56:55;;;;;;;8.43;1.30;;;8.30;99.90;;;;;;5056650;28;21292;-69
2023/03/07 12:59:22;;;;;;;4.95;1.13;;;8.30;99.50;;;;;;5042130;28;20534;-68
2023/03/07 13:01:59;;;;;;;6.63;1.05;;;8.10;99.40;;;;;;5060615;28;20873;-68
2023/03/07 13:04:35;;;;;;;8.02;1.33;;;7.90;98.50;;;;;;5041747;28;20108;-68
2023/03/07 13:07:15;;;;;;;6.65;1.42;;;7.60;98.10;;;;;;5060318;28;20040;-68
2023/03/07 13:09:45;;;;;;;5.82;1.25;;;7.50;98.80;;;;;;5057918;28;20048;-68